createdAt,value
2023-05-21T00:00:32.659Z,98628.19
2023-05-21T00:01:34.418Z,98635.97
2023-05-21T00:02:36.363Z,98625.00
2023-05-21T00:03:41.930Z,98626.59
2023-05-21T00:04:47.851Z,98631.94
2023-05-21T00:05:50.408Z,98626.31
2023-05-21T00:06:52.317Z,98627.94
2023-05-21T00:07:55.195Z,98626.31
2023-05-21T00:08:57.060Z,98625.00
2023-05-21T00:09:58.967Z,98623.63
2023-05-21T00:11:00.801Z,98620.69
2023-05-21T00:12:02.602Z,98616.97
2023-05-21T00:13:04.349Z,98623.91
2023-05-21T00:14:06.230Z,98620.16
2023-05-21T00:15:08.543Z,98625.00
2023-05-21T00:16:11.387Z,98625.78
2023-05-21T00:17:13.244Z,98623.38
2023-05-21T00:18:15.148Z,98622.31
2023-05-21T00:19:17.044Z,98617.22
2023-05-21T00:20:18.820Z,98618.03
2023-05-21T00:21:23.188Z,98613.75
2023-05-21T00:22:25.006Z,98614.28
2023-05-21T00:23:26.996Z,98613.47
2023-05-21T00:24:29.462Z,98617.50
2023-05-21T00:25:31.672Z,98615.34
2023-05-21T00:26:34.609Z,98619.63
2023-05-21T00:27:36.508Z,98615.63
2023-05-21T00:28:38.250Z,98617.50
2023-05-21T00:29:40.647Z,98618.28
2023-05-21T00:30:43.486Z,98610.78
2023-05-21T00:31:45.321Z,98610.78
2023-05-21T00:32:47.567Z,98619.88
2023-05-21T00:33:49.392Z,98608.13
2023-05-21T00:34:51.263Z,98603.59
2023-05-21T00:35:53.092Z,98615.63
2023-05-21T00:36:55.768Z,98600.88
2023-05-21T00:37:57.562Z,98609.19
2023-05-21T00:38:59.324Z,98606.78
2023-05-21T00:40:01.993Z,98598.25
2023-05-21T00:41:03.828Z,98605.47
2023-05-21T00:42:05.598Z,98595.03
2023-05-21T00:43:10.239Z,98600.59
2023-05-21T00:44:14.132Z,98599.56
2023-05-21T00:45:16.124Z,98596.31
2023-05-21T00:46:19.859Z,98595.81
2023-05-21T00:47:21.915Z,98596.88
2023-05-21T00:48:23.888Z,98594.16
2023-05-21T00:49:26.074Z,98599.25
2023-05-21T00:50:27.943Z,98594.44
2023-05-21T00:51:31.030Z,98594.97
2023-05-21T00:52:33.552Z,98598.72
2023-05-21T00:53:35.947Z,98588.00
2023-05-21T00:54:37.716Z,98594.13
2023-05-21T00:55:39.855Z,98590.41
2023-05-21T00:56:42.288Z,98591.72
2023-05-21T00:57:44.135Z,98581.81
2023-05-21T00:58:46.147Z,98587.97
2023-05-21T00:59:50.746Z,98576.22
2023-05-21T01:00:56.014Z,98590.91
2023-05-21T01:02:04.372Z,98581.84
2023-05-21T01:03:06.774Z,98587.69
2023-05-21T01:04:08.591Z,98577.56
2023-05-21T01:05:10.949Z,98580.75
2023-05-21T01:06:14.270Z,98575.13
2023-05-21T01:07:16.029Z,98570.34
2023-05-21T01:08:18.116Z,98574.31
2023-05-21T01:09:20.546Z,98572.47
2023-05-21T01:10:23.102Z,98569.28
2023-05-21T01:11:46.632Z,98583.16
2023-05-21T01:12:49.130Z,98581.03
2023-05-21T01:13:51.313Z,98573.00
2023-05-21T01:14:53.792Z,98572.47
2023-05-21T01:15:55.599Z,98569.78
2023-05-21T01:16:59.740Z,98577.03
2023-05-21T01:18:01.829Z,98573.28
2023-05-21T01:19:05.701Z,98573.81
2023-05-21T01:20:11.462Z,98571.41
2023-05-21T01:21:17.444Z,98573.56
2023-05-21T01:22:21.992Z,98577.84
2023-05-21T01:23:23.939Z,98576.25
2023-05-21T01:24:25.944Z,98579.16
2023-05-21T01:25:27.694Z,98579.47
2023-05-21T01:26:30.560Z,98576.25
2023-05-21T01:27:32.334Z,98570.91
2023-05-21T01:28:34.776Z,98570.91
2023-05-21T01:29:36.558Z,98585.31
2023-05-21T01:30:40.946Z,98564.19
2023-05-21T01:31:46.829Z,98573.03
2023-05-21T01:32:56.659Z,98585.06
2023-05-21T01:34:04.326Z,98574.91
2023-05-21T01:35:14.727Z,98572.50
2023-05-21T01:36:26.890Z,98577.59
2023-05-21T01:37:40.603Z,98579.72
2023-05-21T01:38:49.315Z,98578.91
2023-05-21T01:39:57.231Z,98570.34
2023-05-21T01:41:04.116Z,98571.97
2023-05-21T01:42:10.427Z,98581.03
2023-05-21T01:43:14.153Z,98570.88
2023-05-21T01:44:18.975Z,98582.09
2023-05-21T01:45:24.069Z,98580.75
2023-05-21T01:46:29.132Z,98579.41
2023-05-21T01:47:32.342Z,98582.09
2023-05-21T01:48:35.235Z,98577.56
2023-05-21T01:49:37.761Z,98572.47
2023-05-21T01:50:41.778Z,98580.47
2023-05-21T01:51:44.058Z,98572.75
2023-05-21T01:52:50.236Z,98575.13
2023-05-21T01:53:51.960Z,98576.50
2023-05-21T01:54:54.628Z,98570.31
2023-05-21T01:55:56.544Z,98573.25
2023-05-21T01:56:58.408Z,98569.22
2023-05-21T01:58:02.554Z,98560.94
2023-05-21T01:59:06.031Z,98572.97
2023-05-21T02:00:09.254Z,98566.84
2023-05-21T02:01:12.528Z,98566.56
2023-05-21T02:02:14.429Z,98558.81
2023-05-21T02:03:16.645Z,98568.69
2023-05-21T02:04:18.507Z,98562.28
2023-05-21T02:05:20.306Z,98559.56
2023-05-21T02:06:22.781Z,98562.25
2023-05-21T02:07:24.747Z,98555.31
2023-05-21T02:08:27.464Z,98550.75
2023-05-21T02:09:29.211Z,98564.41
2023-05-21T02:10:31.099Z,98554.22
2023-05-21T02:11:32.867Z,98560.94
2023-05-21T02:12:34.613Z,98563.06
2023-05-21T02:13:40.816Z,98560.63
2023-05-21T02:14:42.703Z,98566.50
2023-05-21T02:15:45.103Z,98561.41
2023-05-21T02:16:47.320Z,98563.84
2023-05-21T02:17:51.504Z,98564.09
2023-05-21T02:18:54.590Z,98561.94
2023-05-21T02:19:56.392Z,98563.25
2023-05-21T02:20:58.201Z,98569.88
2023-05-21T02:21:59.932Z,98559.59
2023-05-21T02:23:01.662Z,98569.97
2023-05-21T02:24:03.612Z,98568.06
2023-05-21T02:25:09.884Z,98566.16
2023-05-21T02:26:11.714Z,98561.56
2023-05-21T02:27:13.863Z,98562.94
2023-05-21T02:28:16.009Z,98568.00
2023-05-21T02:29:17.844Z,98574.66
2023-05-21T02:30:20.185Z,98562.63
2023-05-21T02:31:21.941Z,98555.94
2023-05-21T02:32:23.921Z,98561.69
2023-05-21T02:33:26.297Z,98568.28
2023-05-21T02:34:31.032Z,98550.22
2023-05-21T02:35:32.931Z,98565.38
2023-05-21T02:36:36.291Z,98556.19
2023-05-21T02:37:40.543Z,98555.44
2023-05-21T02:38:45.539Z,98559.50
2023-05-21T02:39:47.269Z,98554.72
2023-05-21T02:40:51.237Z,98557.94
2023-05-21T02:41:53.051Z,98562.50
2023-05-21T02:42:54.788Z,98553.16
2023-05-21T02:43:56.501Z,98559.53
2023-05-21T02:44:58.394Z,98560.53
2023-05-21T02:46:00.346Z,98557.59
2023-05-21T02:47:02.158Z,98559.75
2023-05-21T02:48:04.044Z,98559.50
2023-05-21T02:49:05.916Z,98561.16
2023-05-21T02:50:09.099Z,98562.75
2023-05-21T02:51:10.842Z,98567.03
2023-05-21T02:52:12.948Z,98558.50
2023-05-21T02:53:14.765Z,98563.88
2023-05-21T02:54:16.515Z,98562.31
2023-05-21T02:55:18.248Z,98560.19
2023-05-21T02:56:20.135Z,98554.59
2023-05-21T02:57:21.894Z,98557.25
2023-05-21T02:58:25.371Z,98563.69
2023-05-21T02:59:27.224Z,98562.38
2023-05-21T03:00:28.975Z,98564.78
2023-05-21T03:01:30.858Z,98562.94
2023-05-21T03:02:32.780Z,98563.19
2023-05-21T03:03:34.726Z,98562.94
2023-05-21T03:04:39.206Z,98562.44
2023-05-21T03:05:41.443Z,98565.09
2023-05-21T03:06:44.672Z,98556.00
2023-05-21T03:07:46.476Z,98558.41
2023-05-21T03:08:48.394Z,98564.28
2023-05-21T03:09:50.207Z,98555.19
2023-05-21T03:10:51.957Z,98563.19
2023-05-21T03:11:53.735Z,98562.13
2023-05-21T03:12:55.474Z,98566.16
2023-05-21T03:13:57.406Z,98562.94
2023-05-21T03:14:59.898Z,98563.75
2023-05-21T03:16:01.684Z,98562.44
2023-05-21T03:17:06.262Z,98562.72
2023-05-21T03:18:08.236Z,98562.47
2023-05-21T03:19:11.637Z,98559.56
2023-05-21T03:20:16.694Z,98560.59
2023-05-21T03:21:18.549Z,98559.19
2023-05-21T03:22:20.331Z,98562.69
2023-05-21T03:23:22.082Z,98560.47
2023-05-21T03:24:23.860Z,98539.88
2023-05-21T03:25:25.822Z,98560.53
2023-05-21T03:26:27.707Z,98565.34
2023-05-21T03:27:29.442Z,98566.16
2023-05-21T03:28:31.722Z,98569.88
2023-05-21T03:29:34.591Z,98571.47
2023-05-21T03:30:38.385Z,98568.81
2023-05-21T03:31:40.236Z,98568.81
2023-05-21T03:32:42.029Z,98563.72
2023-05-21T03:33:43.818Z,98555.97
2023-05-21T03:34:45.597Z,98565.34
2023-05-21T03:35:47.345Z,98553.59
2023-05-21T03:36:49.373Z,98563.53
2023-05-21T03:37:51.275Z,98550.75
2023-05-21T03:38:53.046Z,98558.50
2023-05-21T03:39:54.830Z,98554.72
2023-05-21T03:40:56.550Z,98560.38
2023-05-21T03:41:58.274Z,98552.63
2023-05-21T03:43:00.032Z,98557.19
2023-05-21T03:44:01.842Z,98567.59
2023-05-21T03:45:04.205Z,98560.38
2023-05-21T03:46:05.999Z,98555.84
2023-05-21T03:47:07.854Z,98566.53
2023-05-21T03:48:09.582Z,98565.50
2023-05-21T03:49:11.682Z,98564.13
2023-05-21T03:50:13.496Z,98560.16
2023-05-21T03:51:16.145Z,98562.56
2023-05-21T03:52:17.962Z,98568.47
2023-05-21T03:53:19.788Z,98562.59
2023-05-21T03:54:21.647Z,98572.22
2023-05-21T03:55:23.415Z,98569.00
2023-05-21T03:56:25.155Z,98565.53
2023-05-21T03:57:26.980Z,98574.63
2023-05-21T03:58:28.707Z,98572.75
2023-05-21T03:59:30.495Z,98575.41
2023-05-21T04:00:37.587Z,98567.88
2023-05-21T04:01:39.338Z,98577.78
2023-05-21T04:02:41.193Z,98571.38
2023-05-21T04:03:43.162Z,98571.38
2023-05-21T04:04:45.787Z,98568.97
2023-05-21T04:05:47.668Z,98570.06
2023-05-21T04:06:51.707Z,98580.75
2023-05-21T04:07:53.494Z,98574.59
2023-05-21T04:08:55.263Z,98579.69
2023-05-21T04:09:57.081Z,98577.81
2023-05-21T04:10:58.891Z,98577.00
2023-05-21T04:12:00.642Z,98562.59
2023-05-21T04:13:02.432Z,98563.66
2023-05-21T04:14:04.213Z,98566.84
2023-05-21T04:15:06.905Z,98567.63
2023-05-21T04:16:12.434Z,98572.69
2023-05-21T04:17:14.329Z,98564.69
2023-05-21T04:18:20.657Z,98570.03
2023-05-21T04:19:22.425Z,98564.66
2023-05-21T04:20:24.273Z,98559.84
2023-05-21T04:21:26.151Z,98566.00
2023-05-21T04:22:27.885Z,98565.50
2023-05-21T04:23:29.676Z,98560.94
2023-05-21T04:24:31.814Z,98563.09
2023-05-21T04:25:34.252Z,98560.97
2023-05-21T04:26:36.271Z,98567.41
2023-05-21T04:27:38.022Z,98563.41
2023-05-21T04:28:42.173Z,98553.00
2023-05-21T04:29:44.000Z,98551.69
2023-05-21T04:30:50.015Z,98559.72
2023-05-21T04:31:51.837Z,98553.56
2023-05-21T04:32:54.982Z,98552.19
2023-05-21T04:33:57.147Z,98555.72
2023-05-21T04:35:01.226Z,98545.03
2023-05-21T04:36:03.992Z,98549.84
2023-05-21T04:37:06.970Z,98542.63
2023-05-21T04:38:08.697Z,98553.84
2023-05-21T04:39:10.482Z,98552.81
2023-05-21T04:40:18.433Z,98556.28
2023-05-21T04:41:21.372Z,98553.84
2023-05-21T04:42:24.179Z,98559.75
2023-05-21T04:43:26.804Z,98559.94
2023-05-21T04:44:28.611Z,98569.34
2023-05-21T04:45:30.916Z,98567.50
2023-05-21T04:46:32.679Z,98564.56
2023-05-21T04:47:35.708Z,98566.72
2023-05-21T04:48:37.728Z,98566.22
2023-05-21T04:49:39.468Z,98565.97
2023-05-21T04:50:41.731Z,98566.50
2023-05-21T04:51:43.574Z,98566.78
2023-05-21T04:52:45.992Z,98561.44
2023-05-21T04:53:48.293Z,98568.13
2023-05-21T04:54:50.084Z,98572.41
2023-05-21T04:55:51.854Z,98566.56
2023-05-21T04:56:53.649Z,98559.59
2023-05-21T04:57:55.387Z,98574.03
2023-05-21T04:58:58.906Z,98567.88
2023-05-21T05:00:00.768Z,98561.72
2023-05-21T05:01:04.235Z,98566.28
2023-05-21T05:02:06.133Z,98561.19
2023-05-21T05:03:08.258Z,98568.69
2023-05-21T05:04:10.029Z,98571.09
2023-05-21T05:05:11.781Z,98577.25
2023-05-21T05:06:13.567Z,98570.56
2023-05-21T05:07:15.702Z,98571.91
2023-05-21T05:08:17.432Z,98573.25
2023-05-21T05:09:21.628Z,98573.75
2023-05-21T05:10:23.386Z,98575.38
2023-05-21T05:11:25.348Z,98566.28
2023-05-21T05:12:27.093Z,98576.19
2023-05-21T05:13:28.955Z,98579.41
2023-05-21T05:14:30.714Z,98568.44
2023-05-21T05:15:32.449Z,98573.81
2023-05-21T05:16:35.748Z,98574.84
2023-05-21T05:17:37.612Z,98577.28
2023-05-21T05:18:39.380Z,98574.06
2023-05-21T05:19:41.140Z,98572.47
2023-05-21T05:20:42.967Z,98572.47
2023-05-21T05:21:44.771Z,98572.22
2023-05-21T05:22:46.653Z,98578.91
2023-05-21T05:23:48.407Z,98580.25
2023-05-21T05:24:50.196Z,98580.50
2023-05-21T05:25:52.068Z,98573.56
2023-05-21T05:26:53.837Z,98581.31
2023-05-21T05:27:55.645Z,98581.31
2023-05-21T05:28:57.450Z,98592.28
2023-05-21T05:29:59.236Z,98586.91
2023-05-21T05:31:01.079Z,98599.75
2023-05-21T05:32:02.862Z,98596.00
2023-05-21T05:33:04.726Z,98604.81
2023-05-21T05:34:06.563Z,98597.88
2023-05-21T05:35:08.956Z,98607.00
2023-05-21T05:36:10.724Z,98597.88
2023-05-21T05:37:12.562Z,98603.78
2023-05-21T05:38:14.341Z,98596.00
2023-05-21T05:39:16.163Z,98603.50
2023-05-21T05:40:17.950Z,98595.22
2023-05-21T05:41:19.698Z,98598.69
2023-05-21T05:42:21.519Z,98579.44
2023-05-21T05:43:25.552Z,98584.25
2023-05-21T05:44:27.607Z,98588.28
2023-05-21T05:45:29.380Z,98581.81
2023-05-21T05:46:31.187Z,98585.59
2023-05-21T05:47:33.101Z,98583.44
2023-05-21T05:48:37.438Z,98583.72
2023-05-21T05:49:39.223Z,98590.66
2023-05-21T05:50:41.175Z,98591.22
2023-05-21T05:51:42.961Z,98595.22
2023-05-21T05:52:44.767Z,98597.63
2023-05-21T05:53:46.565Z,98604.56
2023-05-21T05:54:48.347Z,98603.78
2023-05-21T05:55:50.164Z,98599.75
2023-05-21T05:56:51.897Z,98602.13
2023-05-21T05:57:53.749Z,98602.94
2023-05-21T05:58:55.748Z,98604.28
2023-05-21T05:59:57.928Z,98610.41
2023-05-21T06:00:59.682Z,98605.56
2023-05-21T06:02:01.558Z,98606.38
2023-05-21T06:03:04.140Z,98604.75
2023-05-21T06:04:06.035Z,98610.38
2023-05-21T06:05:08.518Z,98610.91
2023-05-21T06:06:10.353Z,98619.97
2023-05-21T06:07:12.177Z,98623.16
2023-05-21T06:08:13.954Z,98632.25
2023-05-21T06:09:15.717Z,98632.81
2023-05-21T06:10:17.567Z,98626.63
2023-05-21T06:11:20.086Z,98618.31
2023-05-21T06:12:21.844Z,98624.44
2023-05-21T06:13:23.635Z,98621.50
2023-05-21T06:14:25.531Z,98623.91
2023-05-21T06:15:27.313Z,98625.53
2023-05-21T06:16:31.661Z,98631.63
2023-05-21T06:17:33.751Z,98634.81
2023-05-21T06:18:35.983Z,98631.03
2023-05-21T06:19:37.739Z,98637.47
2023-05-21T06:20:39.481Z,98636.97
2023-05-21T06:21:41.266Z,98633.78
2023-05-21T06:22:43.048Z,98635.41
2023-05-21T06:23:44.861Z,98631.63
2023-05-21T06:24:46.658Z,98634.31
2023-05-21T06:25:49.980Z,98627.41
2023-05-21T06:26:51.937Z,98627.97
2023-05-21T06:27:53.733Z,98625.56
2023-05-21T06:28:55.526Z,98629.03
2023-05-21T06:29:57.582Z,98625.84
2023-05-21T06:30:59.355Z,98619.97
2023-05-21T06:32:01.842Z,98625.31
2023-05-21T06:33:03.868Z,98622.63
2023-05-21T06:34:05.821Z,98617.25
2023-05-21T06:35:08.095Z,98621.03
2023-05-21T06:36:09.902Z,98634.94
2023-05-21T06:37:11.704Z,98621.75
2023-05-21T06:38:13.459Z,98591.69
2023-05-21T06:39:15.227Z,98630.19
2023-05-21T06:40:17.128Z,98639.47
2023-05-21T06:41:18.858Z,98625.38
2023-05-21T06:42:20.659Z,98632.53
2023-05-21T06:43:22.567Z,98622.34
2023-05-21T06:44:27.381Z,98622.41
2023-05-21T06:45:29.136Z,98622.94
2023-05-21T06:46:31.142Z,98621.09
2023-05-21T06:47:32.945Z,98619.81
2023-05-21T06:48:36.212Z,98595.44
2023-05-21T06:49:38.141Z,98617.44
2023-05-21T06:50:39.928Z,98622.78
2023-05-21T06:51:42.684Z,98616.13
2023-05-21T06:52:44.434Z,98609.13
2023-05-21T06:53:46.226Z,98616.97
2023-05-21T06:54:47.962Z,98622.06
2023-05-21T06:55:53.863Z,98617.72
2023-05-21T06:56:55.759Z,98615.88
2023-05-21T06:57:58.233Z,98615.34
2023-05-21T06:58:59.980Z,98590.69
2023-05-21T07:00:02.000Z,98625.25
2023-05-21T07:01:03.862Z,98632.47
2023-05-21T07:02:06.530Z,98610.31
2023-05-21T07:03:08.395Z,98618.31
2023-05-21T07:04:10.858Z,98602.59
2023-05-21T07:05:12.603Z,98611.97
2023-05-21T07:06:14.525Z,98607.19
2023-05-21T07:07:16.326Z,98602.94
2023-05-21T07:08:19.987Z,98608.03
2023-05-21T07:09:21.759Z,98606.72
2023-05-21T07:10:23.535Z,98602.16
2023-05-21T07:11:28.869Z,98599.75
2023-05-21T07:12:30.691Z,98593.84
2023-05-21T07:13:32.492Z,98605.38
2023-05-21T07:14:34.370Z,98607.00
2023-05-21T07:15:36.441Z,98607.78
2023-05-21T07:16:39.329Z,98600.28
2023-05-21T07:17:41.194Z,98610.44
2023-05-21T07:18:43.014Z,98604.00
2023-05-21T07:19:44.810Z,98604.78
2023-05-21T07:20:46.670Z,98604.25
2023-05-21T07:21:49.519Z,98610.66
2023-05-21T07:22:51.370Z,98607.75
2023-05-21T07:23:53.101Z,98612.03
2023-05-21T07:24:54.851Z,98610.41
2023-05-21T07:25:56.611Z,98611.47
2023-05-21T07:26:58.424Z,98609.84
2023-05-21T07:28:00.236Z,98608.25
2023-05-21T07:29:01.987Z,98600.28
2023-05-21T07:30:04.047Z,98598.16
2023-05-21T07:31:05.944Z,98602.41
2023-05-21T07:32:07.779Z,98601.09
2023-05-21T07:33:09.597Z,98608.63
2023-05-21T07:34:11.494Z,98596.31
2023-05-21T07:35:13.240Z,98602.47
2023-05-21T07:36:14.992Z,98612.69
2023-05-21T07:37:16.816Z,98613.22
2023-05-21T07:38:18.584Z,98613.75
2023-05-21T07:39:20.333Z,98611.06
2023-05-21T07:40:22.092Z,98612.66
2023-05-21T07:41:23.906Z,98611.09
2023-05-21T07:42:26.715Z,98608.91
2023-05-21T07:43:28.584Z,98613.16
2023-05-21T07:44:31.995Z,98608.34
2023-05-21T07:45:33.763Z,98611.00
2023-05-21T07:46:35.686Z,98613.34
2023-05-21T07:47:37.522Z,98613.03
2023-05-21T07:48:39.363Z,98608.16
2023-05-21T07:49:41.151Z,98610.50
2023-05-21T07:50:42.932Z,98610.47
2023-05-21T07:51:44.950Z,98616.84
2023-05-21T07:52:46.766Z,98623.19
2023-05-21T07:53:48.568Z,98622.31
2023-05-21T07:54:50.476Z,98616.84
2023-05-21T07:55:52.428Z,98624.25
2023-05-21T07:56:54.158Z,98632.19
2023-05-21T07:57:56.455Z,98629.44
2023-05-21T07:58:58.288Z,98618.63
2023-05-21T08:00:00.036Z,98621.44
2023-05-21T08:01:02.032Z,98622.13
2023-05-21T08:02:04.017Z,98622.88
2023-05-21T08:03:05.873Z,98620.38
2023-05-21T08:04:08.162Z,98626.41
2023-05-21T08:05:10.712Z,98616.44
2023-05-21T08:06:12.558Z,98618.25
2023-05-21T08:07:19.527Z,98618.47
2023-05-21T08:08:22.281Z,98622.66
2023-05-21T08:09:24.037Z,98612.94
2023-05-21T08:10:25.888Z,98615.00
2023-05-21T08:11:28.458Z,98617.56
2023-05-21T08:12:30.323Z,98619.59
2023-05-21T08:13:32.152Z,98621.94
2023-05-21T08:14:33.948Z,98612.69
2023-05-21T08:15:35.899Z,98619.91
2023-05-21T08:16:38.004Z,98621.97
2023-05-21T08:17:39.817Z,98619.75
2023-05-21T08:18:41.670Z,98625.53
2023-05-21T08:19:43.481Z,98624.16
2023-05-21T08:20:46.056Z,98628.72
2023-05-21T08:21:47.910Z,98626.25
2023-05-21T08:22:50.090Z,98630.22
2023-05-21T08:23:55.042Z,98629.50
2023-05-21T08:24:56.848Z,98624.91
2023-05-21T08:25:58.640Z,98631.53
2023-05-21T08:27:00.492Z,98631.16
2023-05-21T08:28:02.263Z,98636.38
2023-05-21T08:29:04.075Z,98623.44
2023-05-21T08:30:06.506Z,98632.72
2023-05-21T08:31:08.336Z,98629.31
2023-05-21T08:32:10.342Z,98632.69
2023-05-21T08:33:12.504Z,98630.38
2023-05-21T08:34:14.338Z,98625.13
2023-05-21T08:35:16.660Z,98625.31
2023-05-21T08:36:18.957Z,98625.88
2023-05-21T08:37:21.806Z,98632.22
2023-05-21T08:38:23.610Z,98631.78
2023-05-21T08:39:25.334Z,98623.63
2023-05-21T08:40:27.107Z,98623.38
2023-05-21T08:41:31.306Z,98625.00
2023-05-21T08:42:46.025Z,98627.78
2023-05-21T08:43:53.041Z,98627.81
2023-05-21T08:45:00.743Z,98626.53
2023-05-21T08:46:04.551Z,98620.91
2023-05-21T08:47:10.649Z,98619.88
2023-05-21T08:48:13.314Z,98620.66
2023-05-21T08:49:18.999Z,98619.31
2023-05-21T08:50:22.057Z,98610.50
2023-05-21T08:51:23.794Z,98615.56
2023-05-21T08:52:26.570Z,98619.59
2023-05-21T08:53:29.223Z,98613.47
2023-05-21T08:54:31.201Z,98618.03
2023-05-21T08:55:35.195Z,98623.13
2023-05-21T08:56:38.591Z,98614.00
2023-05-21T08:57:43.661Z,98609.97
2023-05-21T08:58:46.948Z,98609.72
2023-05-21T08:59:48.766Z,98612.13
2023-05-21T09:00:50.882Z,98606.78
2023-05-21T09:01:54.012Z,98606.22
2023-05-21T09:02:56.983Z,98615.31
2023-05-21T09:04:12.350Z,98612.09
2023-05-21T09:05:22.861Z,98611.56
2023-05-21T09:06:27.573Z,98613.66
2023-05-21T09:07:31.836Z,98610.97
2023-05-21T09:08:36.139Z,98614.97
2023-05-21T09:09:54.497Z,98605.38
2023-05-21T09:10:56.407Z,98609.38
2023-05-21T09:11:58.148Z,98613.34
2023-05-21T09:13:00.348Z,98603.72
2023-05-21T09:14:02.866Z,98602.38
2023-05-21T09:15:05.470Z,98605.31
2023-05-21T09:16:08.188Z,98610.44
2023-05-21T09:17:13.782Z,98604.84
2023-05-21T09:18:15.573Z,98604.84
2023-05-21T09:19:18.080Z,98606.75
2023-05-21T09:20:25.998Z,98612.38
2023-05-21T09:21:32.821Z,98600.31
2023-05-21T09:22:34.657Z,98610.50
2023-05-21T09:23:36.454Z,98609.44
2023-05-21T09:24:38.277Z,98614.25
2023-05-21T09:25:40.202Z,98610.50
2023-05-21T09:26:45.221Z,98601.13
2023-05-21T09:27:47.028Z,98602.16
2023-05-21T09:28:48.835Z,98609.38
2023-05-21T09:29:50.668Z,98603.03
2023-05-21T09:30:54.465Z,98609.97
2023-05-21T09:31:56.328Z,98607.81
2023-05-21T09:33:02.561Z,98606.75
2023-05-21T09:34:04.496Z,98608.34
2023-05-21T09:35:14.334Z,98611.53
2023-05-21T09:36:20.399Z,98609.13
2023-05-21T09:37:27.480Z,98609.91
2023-05-21T09:38:30.433Z,98611.75
2023-05-21T09:39:32.253Z,98615.25
2023-05-21T09:40:35.963Z,98606.63
2023-05-21T09:41:38.192Z,98614.66
2023-05-21T09:42:41.069Z,98618.94
2023-05-21T09:43:45.914Z,98615.66
2023-05-21T09:44:48.022Z,98609.50
2023-05-21T09:45:58.991Z,98616.78
2023-05-21T09:47:02.982Z,98605.53
2023-05-21T09:48:04.905Z,98606.28
2023-05-21T09:49:06.781Z,98613.47
2023-05-21T09:50:13.201Z,98610.72
2023-05-21T09:51:16.790Z,98604.78
2023-05-21T09:52:26.340Z,98615.47
2023-05-21T09:53:29.683Z,98607.97
2023-05-21T09:54:33.420Z,98610.16
2023-05-21T09:55:36.482Z,98591.50
2023-05-21T09:56:40.924Z,98609.91
2023-05-21T09:57:47.589Z,98610.94
2023-05-21T09:59:02.112Z,98612.22
2023-05-21T10:00:06.599Z,98608.56
2023-05-21T10:01:10.535Z,98606.13
2023-05-21T10:02:23.580Z,98606.91
2023-05-21T10:03:28.538Z,98611.91
2023-05-21T10:04:31.777Z,98609.41
2023-05-21T10:05:34.071Z,98614.94
2023-05-21T10:06:43.147Z,98615.34
2023-05-21T10:07:53.778Z,98612.38
2023-05-21T10:08:57.062Z,98611.66
2023-05-21T10:10:01.322Z,98609.72
2023-05-21T10:11:06.623Z,98604.00
2023-05-21T10:12:10.948Z,98608.44
2023-05-21T10:13:14.948Z,98610.28
2023-05-21T10:14:20.283Z,98616.75
2023-05-21T10:15:25.488Z,98606.81
2023-05-21T10:16:29.837Z,98609.75
2023-05-21T10:17:31.806Z,98607.09
2023-05-21T10:18:33.961Z,98620.69
2023-05-21T10:19:37.396Z,98618.78
2023-05-21T10:20:39.932Z,98614.41
2023-05-21T10:21:42.509Z,98621.47
2023-05-21T10:22:44.984Z,98620.66
2023-05-21T10:23:46.900Z,98616.63
2023-05-21T10:24:49.514Z,98622.50
2023-05-21T10:25:52.855Z,98621.31
2023-05-21T10:26:54.903Z,98621.50
2023-05-21T10:27:57.493Z,98628.97
2023-05-21T10:29:00.678Z,98626.50
2023-05-21T10:30:04.632Z,98628.44
2023-05-21T10:31:06.862Z,98629.00
2023-05-21T10:32:08.623Z,98631.75
2023-05-21T10:33:12.033Z,98623.00
2023-05-21T10:34:14.903Z,98622.75
2023-05-21T10:35:17.858Z,98622.75
2023-05-21T10:36:20.761Z,98629.28
2023-05-21T10:37:29.273Z,98624.06
2023-05-21T10:38:33.681Z,98625.13
2023-05-21T10:39:36.878Z,98633.63
2023-05-21T10:40:38.915Z,98629.06
2023-05-21T10:41:53.992Z,98631.47
2023-05-21T10:43:26.561Z,98625.38
2023-05-21T10:44:43.622Z,98633.00
2023-05-21T10:46:06.586Z,98638.88
2023-05-21T10:47:35.796Z,98631.38
2023-05-21T10:48:59.095Z,98632.47
2023-05-21T10:50:36.222Z,98629.28
2023-05-21T10:51:56.748Z,98630.59
2023-05-21T10:52:58.495Z,98642.34
2023-05-21T10:54:05.913Z,98638.28
2023-05-21T10:55:41.508Z,98632.66
2023-05-21T10:56:55.259Z,98628.34
2023-05-21T10:58:13.976Z,98626.22
2023-05-21T10:59:36.603Z,98634.53
2023-05-21T11:00:38.981Z,98629.19
2023-05-21T11:01:42.332Z,98630.25
2023-05-21T11:02:45.921Z,98627.06
2023-05-21T11:03:48.853Z,98618.50
2023-05-21T11:04:58.828Z,98623.03
2023-05-21T11:06:03.046Z,98622.22
2023-05-21T11:07:04.954Z,98619.81
2023-05-21T11:08:21.332Z,98615.28
2023-05-21T11:09:23.549Z,98613.69
2023-05-21T11:10:38.881Z,98628.38
2023-05-21T11:11:43.951Z,98624.66
2023-05-21T11:13:15.590Z,98616.41
2023-05-21T11:14:25.941Z,98613.72
2023-05-21T11:15:27.714Z,98615.34
2023-05-21T11:16:29.618Z,98612.69
2023-05-21T11:17:40.406Z,98615.34
2023-05-21T11:18:42.212Z,98614.56
2023-05-21T11:19:47.588Z,98606.25
2023-05-21T11:20:52.178Z,98604.66
2023-05-21T11:21:55.598Z,98606.53
2023-05-21T11:22:58.489Z,98603.84
2023-05-21T11:24:03.045Z,98601.69
2023-05-21T11:25:05.209Z,98603.03
2023-05-21T11:26:07.203Z,98602.22
2023-05-21T11:27:09.031Z,98599.53
2023-05-21T11:28:10.752Z,98599.25
2023-05-21T11:29:14.763Z,98601.13
2023-05-21T11:30:18.899Z,98596.28
2023-05-21T11:31:27.373Z,98600.56
2023-05-21T11:32:30.002Z,98598.69
2023-05-21T11:33:33.557Z,98601.88
2023-05-21T11:34:46.230Z,98599.69
2023-05-21T11:35:47.920Z,98599.69
2023-05-21T11:36:50.246Z,98596.75
2023-05-21T11:37:54.391Z,98588.16
2023-05-21T11:39:12.665Z,98591.03
2023-05-21T11:40:25.902Z,98601.41
2023-05-21T11:41:27.803Z,98597.91
2023-05-21T11:42:30.415Z,98595.50
2023-05-21T11:43:32.191Z,98593.09
2023-05-21T11:44:40.533Z,98584.78
2023-05-21T11:45:46.900Z,98585.84
2023-05-21T11:46:49.084Z,98578.34
2023-05-21T11:47:52.149Z,98589.53
2023-05-21T11:48:55.362Z,98579.69
2023-05-21T11:49:59.816Z,98581.00
2023-05-21T11:51:02.360Z,98586.31
2023-05-21T11:52:06.190Z,98580.69
2023-05-21T11:53:09.287Z,98585.00
2023-05-21T11:54:12.143Z,98581.19
2023-05-21T11:55:15.925Z,98579.00
2023-05-21T11:56:18.468Z,98584.81
2023-05-21T11:57:20.305Z,98585.06
2023-05-21T11:58:22.340Z,98570.34
2023-05-21T11:59:24.141Z,98571.50
2023-05-21T12:00:26.124Z,98573.09
2023-05-21T12:01:27.868Z,98576.31
2023-05-21T12:02:33.390Z,98573.41
2023-05-21T12:03:35.699Z,98576.59
2023-05-21T12:04:37.643Z,98582.13
2023-05-21T12:05:49.403Z,98572.25
2023-05-21T12:06:52.045Z,98575.16
2023-05-21T12:07:55.070Z,98572.75
2023-05-21T12:08:58.615Z,98570.28
2023-05-21T12:10:01.055Z,98565.41
2023-05-21T12:11:03.030Z,98570.78
2023-05-21T12:12:08.861Z,98564.88
2023-05-21T12:13:10.866Z,98561.38
2023-05-21T12:14:13.716Z,98563.16
2023-05-21T12:15:18.101Z,98563.59
2023-05-21T12:16:22.853Z,98562.50
2023-05-21T12:17:31.754Z,98562.25
2023-05-21T12:18:33.697Z,98557.66
2023-05-21T12:19:36.777Z,98559.75
2023-05-21T12:20:39.147Z,98566.44
2023-05-21T12:21:42.523Z,98556.47
2023-05-21T12:22:44.928Z,98552.75
2023-05-21T12:23:46.741Z,98565.38
2023-05-21T12:24:48.957Z,98560.81